createdAt,value
2023-02-02T00:01:58.182Z,101186.75
2023-02-02T00:04:29.642Z,101180.56
2023-02-02T00:06:58.136Z,101200.03
2023-02-02T00:09:29.796Z,101186.75
2023-02-02T00:11:58.559Z,101195.03
2023-02-02T00:14:26.748Z,101195.81
2023-02-02T00:16:56.493Z,101191.25
2023-02-02T00:19:30.402Z,101192.09
2023-02-02T00:21:58.642Z,101191.25
2023-02-02T00:24:26.790Z,101189.44
2023-02-02T00:26:59.745Z,101200.09
2023-02-02T00:29:30.668Z,101199.22
2023-02-02T00:31:58.462Z,101193.91
2023-02-02T00:34:26.478Z,101200.09
2023-02-02T00:36:54.295Z,101189.53
2023-02-02T00:39:26.274Z,101184.19
2023-02-02T00:41:54.447Z,101186.00
2023-02-02T00:44:40.817Z,101190.41
2023-02-02T00:47:08.615Z,101183.34
2023-02-02T00:49:39.608Z,101182.47
2023-02-02T00:52:07.546Z,101172.72
2023-02-02T00:54:35.362Z,101177.22
2023-02-02T00:57:03.775Z,101173.63
2023-02-02T00:59:32.357Z,101185.19
2023-02-02T01:02:01.994Z,101171.84
2023-02-02T01:04:29.775Z,101178.94
2023-02-02T01:06:58.295Z,101189.53
2023-02-02T01:09:26.031Z,101186.84
2023-02-02T01:11:54.689Z,101192.16
2023-02-02T01:14:22.739Z,101189.47
2023-02-02T01:16:50.585Z,101193.00
2023-02-02T01:19:18.404Z,101196.56
2023-02-02T01:21:46.273Z,101198.31
2023-02-02T01:24:14.855Z,101205.41
2023-02-02T01:26:42.842Z,101196.59
2023-02-02T01:29:10.986Z,101193.97
2023-02-02T01:31:38.771Z,101186.91
2023-02-02T01:34:06.877Z,101192.28
2023-02-02T01:36:35.031Z,101183.53
2023-02-02T01:39:03.404Z,101184.38
2023-02-02T01:41:31.126Z,101191.41
2023-02-02T01:44:03.635Z,101178.13
2023-02-02T01:46:37.052Z,101171.94
2023-02-02T01:49:09.751Z,101182.56
2023-02-02T01:51:50.049Z,101181.72
2023-02-02T01:54:36.295Z,101175.69
2023-02-02T01:57:16.376Z,101175.66
2023-02-02T01:59:47.541Z,101180.19
2023-02-02T02:02:15.997Z,101179.28
2023-02-02T02:04:43.989Z,101171.34
2023-02-02T02:07:13.276Z,101168.66
2023-02-02T02:09:41.225Z,101169.53
2023-02-02T02:12:15.479Z,101172.19
2023-02-02T02:15:08.796Z,101169.56
2023-02-02T02:18:07.003Z,101174.94
2023-02-02T02:21:37.709Z,101175.00
2023-02-02T02:24:53.571Z,101183.97
2023-02-02T02:28:21.326Z,101187.59
2023-02-02T02:30:58.857Z,101187.63
2023-02-02T02:34:00.915Z,101168.13
2023-02-02T02:36:51.973Z,101175.16
2023-02-02T02:40:02.439Z,101177.88
2023-02-02T02:42:36.739Z,101184.00
2023-02-02T02:45:07.956Z,101181.31
2023-02-02T02:47:37.293Z,101170.63
2023-02-02T02:50:25.015Z,101163.63
2023-02-02T02:53:06.043Z,101178.50
2023-02-02T02:56:09.189Z,101180.34
2023-02-02T02:58:58.865Z,101183.88
2023-02-02T03:02:06.376Z,101190.94
2023-02-02T03:04:47.144Z,101189.25
2023-02-02T03:07:38.287Z,101182.97
2023-02-02T03:10:07.924Z,101176.88
2023-02-02T03:12:47.656Z,101178.56
2023-02-02T03:15:17.173Z,101175.00
2023-02-02T03:17:47.739Z,101175.88
2023-02-02T03:20:16.625Z,101180.34
2023-02-02T03:22:44.436Z,101179.38
2023-02-02T03:25:13.008Z,101181.94
2023-02-02T03:27:41.171Z,101189.91
2023-02-02T03:30:13.028Z,101178.38
2023-02-02T03:32:41.464Z,101182.78
2023-02-02T03:35:10.168Z,101177.41
2023-02-02T03:37:38.172Z,101180.97
2023-02-02T03:40:07.330Z,101173.88
2023-02-02T03:42:35.421Z,101183.63
2023-02-02T03:45:03.540Z,101188.91
2023-02-02T03:47:31.739Z,101184.47
2023-02-02T03:49:59.558Z,101187.16
2023-02-02T03:52:27.375Z,101194.19
2023-02-02T03:54:55.254Z,101191.50
2023-02-02T03:57:23.192Z,101199.47
2023-02-02T03:59:51.008Z,101192.41
2023-02-02T04:02:19.017Z,101199.47
2023-02-02T04:04:46.747Z,101198.56
2023-02-02T04:07:15.008Z,101189.75
2023-02-02T04:09:42.743Z,101198.56
2023-02-02T04:12:10.462Z,101190.75
2023-02-02T04:14:38.269Z,101205.69
2023-02-02T04:17:06.047Z,101201.31
2023-02-02T04:19:33.941Z,101195.19
2023-02-02T04:22:01.851Z,101196.06
2023-02-02T04:24:29.728Z,101182.03
2023-02-02T04:26:57.643Z,101192.59
2023-02-02T04:29:26.300Z,101198.78
2023-02-02T04:31:54.717Z,101204.06
2023-02-02T04:34:22.984Z,101195.22
2023-02-02T04:36:50.943Z,101197.88
2023-02-02T04:39:18.591Z,101199.66
2023-02-02T04:41:46.321Z,101217.38
2023-02-02T04:44:16.095Z,101218.22
2023-02-02T04:46:44.632Z,101224.44
2023-02-02T04:49:13.038Z,101224.44
2023-02-02T04:51:41.585Z,101217.44
2023-02-02T04:54:09.443Z,101217.47
2023-02-02T04:56:37.228Z,101209.53
2023-02-02T04:59:05.159Z,101224.53
2023-02-02T05:01:32.999Z,101230.75
2023-02-02T05:04:00.786Z,101239.66
2023-02-02T05:06:28.527Z,101238.75
2023-02-02T05:08:56.186Z,101240.56
2023-02-02T05:11:24.539Z,101241.38
2023-02-02T05:13:55.190Z,101246.66
2023-02-02T05:16:24.308Z,101252.00
2023-02-02T05:18:54.944Z,101251.06
2023-02-02T05:21:23.136Z,101254.53
2023-02-02T05:23:51.339Z,101251.84
2023-02-02T05:26:26.754Z,101267.63
2023-02-02T05:28:54.860Z,101261.53
2023-02-02T05:31:22.851Z,101258.84
2023-02-02T05:33:50.579Z,101257.06
2023-02-02T05:36:18.582Z,101258.75
2023-02-02T05:38:46.321Z,101274.69
2023-02-02T05:41:14.430Z,101260.53
2023-02-02T05:43:42.403Z,101257.84
2023-02-02T05:46:10.554Z,101256.97
2023-02-02T05:48:38.385Z,101254.31
2023-02-02T05:51:15.297Z,101263.97
2023-02-02T05:53:45.043Z,101260.47
2023-02-02T05:56:15.652Z,101269.38
2023-02-02T05:58:44.467Z,101265.84
2023-02-02T06:01:12.168Z,101269.38
2023-02-02T06:03:40.172Z,101276.44
2023-02-02T06:06:08.414Z,101287.00
2023-02-02T06:08:36.669Z,101287.00
2023-02-02T06:11:17.258Z,101280.72
2023-02-02T06:13:46.122Z,101282.56
2023-02-02T06:16:14.193Z,101267.59
2023-02-02T06:18:42.160Z,101289.63
2023-02-02T06:21:11.123Z,101289.63
2023-02-02T06:23:39.045Z,101285.22
2023-02-02T06:26:08.223Z,101284.31
2023-02-02T06:28:35.977Z,101262.28
2023-02-02T06:31:09.056Z,101267.63
2023-02-02T06:33:37.414Z,101282.59
2023-02-02T06:36:07.224Z,101274.59
2023-02-02T06:38:35.057Z,101275.47
2023-02-02T06:41:03.670Z,101272.72
2023-02-02T06:43:31.661Z,101284.25
2023-02-02T06:46:00.196Z,101273.66
2023-02-02T06:48:27.880Z,101271.09
2023-02-02T06:50:59.535Z,101268.44
2023-02-02T06:53:27.956Z,101280.78
2023-02-02T06:56:08.891Z,101267.41
2023-02-02T06:58:36.631Z,101263.97
2023-02-02T07:01:13.005Z,101267.41
2023-02-02T07:03:40.914Z,101263.00
2023-02-02T07:06:29.197Z,101270.97
2023-02-02T07:09:00.924Z,101273.72
2023-02-02T07:11:38.850Z,101275.38
2023-02-02T07:14:13.490Z,101283.44
2023-02-02T07:16:41.246Z,101282.56
2023-02-02T07:19:09.304Z,101282.41
2023-02-02T07:21:37.292Z,101277.00
2023-02-02T07:24:06.401Z,101273.38
2023-02-02T07:26:36.408Z,101284.84
2023-02-02T07:29:05.076Z,101294.63
2023-02-02T07:31:35.850Z,101299.06
2023-02-02T07:34:04.389Z,101276.88
2023-02-02T07:36:33.036Z,101265.38
2023-02-02T07:39:03.917Z,101275.06
2023-02-02T07:41:35.095Z,101275.94
2023-02-02T07:44:04.918Z,101295.44
2023-02-02T07:46:34.494Z,101296.31
2023-02-02T07:49:03.587Z,101302.50
2023-02-02T07:51:31.377Z,101301.63
2023-02-02T07:53:59.466Z,101313.94
2023-02-02T07:56:28.512Z,101305.03
2023-02-02T07:58:57.449Z,101328.94
2023-02-02T08:01:27.588Z,101327.16
2023-02-02T08:04:00.253Z,101322.72
2023-02-02T08:06:34.255Z,101325.25
2023-02-02T08:09:06.516Z,101332.34
2023-02-02T08:11:35.740Z,101340.28
2023-02-02T08:14:05.696Z,101334.19
2023-02-02T08:16:36.169Z,101331.47
2023-02-02T08:19:03.953Z,101331.53
2023-02-02T08:21:35.789Z,101337.66
2023-02-02T08:24:05.157Z,101329.72
2023-02-02T08:26:33.057Z,101335.94
2023-02-02T08:29:07.821Z,101334.06
2023-02-02T08:31:41.687Z,101344.69
2023-02-02T08:34:14.000Z,101347.34
2023-02-02T08:36:42.114Z,101351.84
2023-02-02T08:39:13.062Z,101355.31
2023-02-02T08:41:40.888Z,101366.84
2023-02-02T08:44:11.774Z,101365.06
2023-02-02T08:46:41.626Z,101336.97
2023-02-02T08:49:29.304Z,101336.03
2023-02-02T08:51:57.310Z,101345.56
2023-02-02T08:54:25.246Z,101344.66
2023-02-02T08:56:52.955Z,101356.94
2023-02-02T08:59:20.883Z,101363.03
2023-02-02T09:01:48.856Z,101366.47
2023-02-02T09:04:17.018Z,101369.06
2023-02-02T09:06:45.390Z,101371.72
2023-02-02T09:09:16.281Z,101386.72
2023-02-02T09:11:44.440Z,101370.75
2023-02-02T09:14:14.109Z,101357.38
2023-02-02T09:16:42.218Z,101367.00
2023-02-02T09:19:11.563Z,101387.25
2023-02-02T09:21:40.486Z,101387.25
2023-02-02T09:24:11.729Z,101394.31
2023-02-02T09:26:40.568Z,101404.97
2023-02-02T09:29:12.423Z,101384.50
2023-02-02T09:31:40.864Z,101399.53
2023-02-02T09:34:12.361Z,101402.09
2023-02-02T09:36:40.584Z,101398.91
2023-02-02T09:39:10.523Z,101402.38
2023-02-02T09:41:38.797Z,101405.78
2023-02-02T09:44:32.896Z,101403.94
2023-02-02T09:47:14.553Z,101404.88
2023-02-02T09:50:03.867Z,101407.78
2023-02-02T09:53:23.105Z,101405.84
2023-02-02T09:55:56.135Z,101406.69
2023-02-02T09:58:53.456Z,101392.47
2023-02-02T10:01:31.716Z,101403.03
2023-02-02T10:04:27.155Z,101398.59
2023-02-02T10:07:00.402Z,101405.56
2023-02-02T10:09:36.874Z,101407.31
2023-02-02T10:12:35.862Z,101409.94
2023-02-02T10:15:35.098Z,101405.47
2023-02-02T10:18:29.079Z,101407.25
2023-02-02T10:21:02.510Z,101408.13
2023-02-02T10:23:44.305Z,101404.47
2023-02-02T10:26:22.320Z,101398.63
2023-02-02T10:29:23.848Z,101404.59
2023-02-02T10:32:14.667Z,101418.69
2023-02-02T10:35:06.979Z,101413.28
2023-02-02T10:38:17.013Z,101413.28
2023-02-02T10:41:22.343Z,101406.25
2023-02-02T10:44:01.673Z,101413.38
2023-02-02T10:46:39.668Z,101410.72
2023-02-02T10:49:14.657Z,101413.41
2023-02-02T10:51:55.674Z,101411.59
2023-02-02T10:55:05.789Z,101414.25
2023-02-02T10:58:01.365Z,101406.31
2023-02-02T11:00:54.695Z,101406.34
2023-02-02T11:03:27.406Z,101406.25
2023-02-02T11:06:17.297Z,101394.88
2023-02-02T11:08:52.690Z,101411.59
2023-02-02T11:11:28.239Z,101415.94
2023-02-02T11:14:07.753Z,101428.28
2023-02-02T11:16:43.653Z,101433.69
2023-02-02T11:19:27.897Z,101428.34
2023-02-02T11:22:02.983Z,101435.41
2023-02-02T11:24:36.754Z,101430.91
2023-02-02T11:27:15.120Z,101437.97
2023-02-02T11:29:48.968Z,101423.84
2023-02-02T11:32:27.454Z,101433.53
2023-02-02T11:35:04.100Z,101420.31
2023-02-02T11:37:35.242Z,101426.50
2023-02-02T11:40:56.806Z,101410.56
2023-02-02T11:43:36.191Z,101417.72
2023-02-02T11:46:08.144Z,101422.97
2023-02-02T11:48:39.460Z,101415.84
2023-02-02T11:51:19.067Z,101415.84
2023-02-02T11:53:49.149Z,101407.94
2023-02-02T11:56:29.513Z,101405.19
2023-02-02T11:58:59.170Z,101379.53
2023-02-02T12:01:34.622Z,101400.66
2023-02-02T12:04:23.225Z,101396.25
2023-02-02T12:06:51.030Z,101401.47
2023-02-02T12:09:26.119Z,101393.38
2023-02-02T12:12:20.140Z,101400.50
2023-02-02T12:15:08.171Z,101405.72
2023-02-02T12:17:48.471Z,101404.81
2023-02-02T12:20:26.591Z,101402.13
2023-02-02T12:23:13.642Z,101393.34
2023-02-02T12:26:21.790Z,101413.69
2023-02-02T12:29:39.309Z,101415.50
2023-02-02T12:32:43.067Z,101410.28
2023-02-02T12:35:40.374Z,101404.97
2023-02-02T12:38:36.114Z,101400.66
2023-02-02T12:41:29.548Z,101404.19
2023-02-02T12:44:13.674Z,101397.97
2023-02-02T12:47:16.247Z,101391.66
2023-02-02T12:50:11.584Z,101389.84
2023-02-02T12:53:19.299Z,101392.50
2023-02-02T12:57:03.484Z,101382.78
2023-02-02T13:00:01.702Z,101392.56
2023-02-02T13:03:05.069Z,101388.97
2023-02-02T13:05:58.532Z,101383.66
2023-02-02T13:08:33.291Z,101373.44
2023-02-02T13:11:30.031Z,101384.56
2023-02-02T13:14:16.372Z,101378.22
2023-02-02T13:16:50.265Z,101385.28
2023-02-02T13:19:32.041Z,101393.00
2023-02-02T13:22:06.754Z,101397.41
2023-02-02T13:24:40.393Z,101400.84
2023-02-02T13:27:14.624Z,101393.69
2023-02-02T13:29:54.752Z,101402.53
2023-02-02T13:32:36.163Z,101398.13
2023-02-02T13:35:55.728Z,101407.88
2023-02-02T13:38:27.017Z,101400.84
2023-02-02T13:40:59.184Z,101410.59
2023-02-02T13:43:45.999Z,101406.13
2023-02-02T13:46:34.158Z,101415.81
2023-02-02T13:49:31.155Z,101409.50
2023-02-02T13:52:23.806Z,101410.31
2023-02-02T13:55:13.124Z,101423.59
2023-02-02T13:57:56.934Z,101427.09
2023-02-02T14:00:34.807Z,101423.50
2023-02-02T14:03:38.610Z,101426.97
2023-02-02T14:06:22.356Z,101417.31
2023-02-02T14:09:00.267Z,101419.97
2023-02-02T14:11:51.923Z,101422.63
2023-02-02T14:14:32.991Z,101433.34
2023-02-02T14:17:03.111Z,101430.63
2023-02-02T14:19:31.064Z,101436.88
2023-02-02T14:22:09.243Z,101442.13
2023-02-02T14:24:36.903Z,101445.81
2023-02-02T14:27:30.483Z,101452.00
2023-02-02T14:30:14.784Z,101445.84
2023-02-02T14:32:43.367Z,101452.16
2023-02-02T14:35:14.427Z,101440.66
2023-02-02T14:37:48.036Z,101441.63
2023-02-02T14:40:34.578Z,101443.38
2023-02-02T14:43:50.925Z,101442.59
2023-02-02T14:46:36.324Z,101462.16
2023-02-02T14:49:04.156Z,101470.22
2023-02-02T14:51:35.132Z,101465.84
2023-02-02T14:54:39.837Z,101463.16
2023-02-02T14:57:28.671Z,101465.81
2023-02-02T15:00:00.835Z,101460.63
2023-02-02T15:02:37.779Z,101479.09
2023-02-02T15:05:39.047Z,101486.25
2023-02-02T15:08:26.870Z,101475.78
2023-02-02T15:11:24.750Z,101491.66
2023-02-02T15:14:07.085Z,101482.81
2023-02-02T15:16:39.287Z,101490.88
2023-02-02T15:19:33.122Z,101502.38
2023-02-02T15:22:42.773Z,101507.78
2023-02-02T15:25:50.254Z,101511.47
2023-02-02T15:28:52.018Z,101515.09
2023-02-02T15:31:46.757Z,101518.72
2023-02-02T15:34:46.213Z,101521.34
2023-02-02T15:37:21.617Z,101524.97
2023-02-02T15:39:58.282Z,101524.81
2023-02-02T15:42:52.862Z,101530.25
2023-02-02T15:45:54.829Z,101525.91
2023-02-02T15:48:24.113Z,101535.97
2023-02-02T15:50:57.473Z,101544.69
2023-02-02T15:53:44.678Z,101557.00
2023-02-02T15:56:24.562Z,101560.44
2023-02-02T15:58:56.032Z,101557.75
2023-02-02T16:01:24.679Z,101542.97
2023-02-02T16:04:22.420Z,101561.31
2023-02-02T16:06:50.715Z,101566.66
2023-02-02T16:09:26.909Z,101564.97
2023-02-02T16:11:54.925Z,101576.38
2023-02-02T16:14:23.804Z,101577.31
2023-02-02T16:16:51.659Z,101576.47
2023-02-02T16:19:26.216Z,101586.09
2023-02-02T16:22:01.899Z,101602.16
2023-02-02T16:24:36.157Z,101602.16
2023-02-02T16:27:08.392Z,101609.22
2023-02-02T16:29:36.767Z,101620.72
2023-02-02T16:32:05.174Z,101631.28
2023-02-02T16:34:46.812Z,101644.56
2023-02-02T16:37:32.078Z,101647.28
2023-02-02T16:40:28.649Z,101655.25
2023-02-02T16:43:19.916Z,101660.59
2023-02-02T16:45:57.496Z,101673.03
2023-02-02T16:48:44.880Z,101674.72
2023-02-02T16:51:18.872Z,101678.28
2023-02-02T16:54:07.809Z,101667.72
2023-02-02T16:56:39.921Z,101681.00
2023-02-02T16:59:28.493Z,101680.13
2023-02-02T17:02:21.299Z,101689.81
2023-02-02T17:04:56.249Z,101688.91
2023-02-02T17:07:24.897Z,101690.69
2023-02-02T17:10:31.254Z,101705.78
2023-02-02T17:13:00.624Z,101686.25
2023-02-02T17:15:36.116Z,101691.53
2023-02-02T17:18:05.286Z,101692.41
2023-02-02T17:20:34.497Z,101703.06
2023-02-02T17:23:09.744Z,101704.75
2023-02-02T17:25:42.888Z,101695.06
2023-02-02T17:28:15.751Z,101713.56
2023-02-02T17:30:47.029Z,101729.53
2023-02-02T17:33:18.469Z,101733.91
2023-02-02T17:35:55.051Z,101725.41
2023-02-02T17:38:24.844Z,101715.56
2023-02-02T17:40:54.136Z,101724.28
2023-02-02T17:43:22.228Z,101726.84
2023-02-02T17:45:50.662Z,101736.56
2023-02-02T17:48:18.647Z,101732.13
2023-02-02T17:50:47.024Z,101737.53
2023-02-02T17:53:20.289Z,101745.47
2023-02-02T17:55:52.401Z,101742.84
2023-02-02T17:58:20.247Z,101744.69
2023-02-02T18:00:53.827Z,101745.63
2023-02-02T18:03:34.287Z,101742.13
2023-02-02T18:06:03.772Z,101740.41
2023-02-02T18:08:33.481Z,101735.13
2023-02-02T18:11:01.585Z,101740.44
2023-02-02T18:13:30.165Z,101748.50
2023-02-02T18:15:59.695Z,101748.59
2023-02-02T18:18:29.609Z,101735.34
2023-02-02T18:20:58.942Z,101738.91
2023-02-02T18:23:26.969Z,101736.22
2023-02-02T18:25:54.671Z,101722.09
2023-02-02T18:28:22.616Z,101716.78
2023-02-02T18:30:50.589Z,101676.22
2023-02-02T18:33:19.920Z,101694.75
2023-02-02T18:35:48.391Z,101717.81
2023-02-02T18:38:16.347Z,101723.09
2023-02-02T18:40:44.067Z,101728.47
2023-02-02T18:43:11.837Z,101702.00
2023-02-02T18:45:39.571Z,101732.97
2023-02-02T18:48:07.474Z,101720.59
2023-02-02T18:50:36.156Z,101726.78
2023-02-02T18:53:04.008Z,101732.94
2023-02-02T18:55:31.827Z,101733.00
2023-02-02T18:57:59.637Z,101735.63
2023-02-02T19:00:27.595Z,101735.59
2023-02-02T19:02:55.651Z,101743.59
2023-02-02T19:05:42.318Z,101728.56
2023-02-02T19:08:10.116Z,101740.03
2023-02-02T19:10:38.036Z,101736.44
2023-02-02T19:13:06.541Z,101741.78
2023-02-02T19:15:39.300Z,101727.59
2023-02-02T19:18:15.332Z,101731.13
2023-02-02T19:20:44.420Z,101733.78
2023-02-02T19:23:29.502Z,101728.38
2023-02-02T19:25:57.278Z,101719.59
2023-02-02T19:28:31.332Z,101730.25
2023-02-02T19:31:02.201Z,101729.38
2023-02-02T19:33:42.449Z,101733.91
2023-02-02T19:36:30.840Z,101725.13
2023-02-02T19:39:12.094Z,101726.00
2023-02-02T19:41:42.359Z,101725.16
2023-02-02T19:44:22.932Z,101718.88
2023-02-02T19:46:52.790Z,101715.44
2023-02-02T19:49:33.235Z,101724.28
2023-02-02T19:52:05.674Z,101722.63
2023-02-02T19:54:40.818Z,101727.09
2023-02-02T19:57:43.004Z,101743.06
2023-02-02T20:00:23.690Z,101752.03
2023-02-02T20:03:11.236Z,101752.91
2023-02-02T20:05:44.900Z,101737.91
2023-02-02T20:08:38.119Z,101746.69
2023-02-02T20:11:32.168Z,101745.00
2023-02-02T20:14:03.104Z,101729.09
2023-02-02T20:16:43.898Z,101728.25
2023-02-02T20:19:22.549Z,101730.94
2023-02-02T20:21:52.637Z,101733.63
2023-02-02T20:24:35.824Z,101738.03
2023-02-02T20:27:16.699Z,101718.53
2023-02-02T20:29:47.832Z,101724.78
2023-02-02T20:32:21.645Z,101728.31
2023-02-02T20:34:51.322Z,101726.56
2023-02-02T20:37:27.147Z,101722.13
2023-02-02T20:39:57.478Z,101732.75
2023-02-02T20:42:25.634Z,101742.53
2023-02-02T20:44:54.078Z,101748.72
2023-02-02T20:47:22.024Z,101747.84
2023-02-02T20:49:49.869Z,101740.75
2023-02-02T20:52:23.956Z,101740.69
2023-02-02T20:54:52.461Z,101738.97
2023-02-02T20:57:20.265Z,101747.84
2023-02-02T20:59:48.768Z,101747.84
2023-02-02T21:02:20.332Z,101744.25
2023-02-02T21:04:48.501Z,101745.09
2023-02-02T21:07:18.692Z,101761.00
2023-02-02T21:09:48.822Z,101753.94
2023-02-02T21:12:17.638Z,101762.78
2023-02-02T21:14:45.525Z,101758.31
2023-02-02T21:17:15.481Z,101758.28
2023-02-02T21:19:44.008Z,101760.97
2023-02-02T21:22:12.312Z,101761.81
2023-02-02T21:24:40.389Z,101761.81
2023-02-02T21:27:09.279Z,101753.91
2023-02-02T21:29:37.380Z,101762.66
2023-02-02T21:32:05.395Z,101765.34
2023-02-02T21:34:33.491Z,101766.22
2023-02-02T21:37:01.780Z,101771.53
2023-02-02T21:39:36.658Z,101755.56
2023-02-02T21:42:07.466Z,101763.53
2023-02-02T21:44:38.368Z,101759.16
2023-02-02T21:47:37.100Z,101756.50
2023-02-02T21:50:19.780Z,101758.28
2023-02-02T21:52:47.778Z,101756.50
2023-02-02T21:55:36.752Z,101756.50
2023-02-02T21:58:45.247Z,101753.91
2023-02-02T22:01:41.968Z,101751.22
2023-02-02T22:04:22.509Z,101751.19
2023-02-02T22:07:10.341Z,101751.13
2023-02-02T22:09:41.326Z,101757.31
2023-02-02T22:12:22.296Z,101756.38
2023-02-02T22:15:00.656Z,101751.91
2023-02-02T22:17:41.042Z,101764.31
2023-02-02T22:20:15.115Z,101759.81
2023-02-02T22:22:47.311Z,101753.66
2023-02-02T22:25:18.085Z,101769.56
2023-02-02T22:27:55.420Z,101751.88
2023-02-02T22:30:39.102Z,101758.00
2023-02-02T22:33:09.794Z,101754.47
2023-02-02T22:35:38.220Z,101748.34
2023-02-02T22:38:06.673Z,101747.38
2023-02-02T22:40:35.272Z,101728.78
2023-02-02T22:43:05.947Z,101743.75
2023-02-02T22:45:34.729Z,101749.97
2023-02-02T22:48:02.632Z,101746.34
2023-02-02T22:50:31.886Z,101740.13
2023-02-02T22:52:59.692Z,101744.56
2023-02-02T22:55:28.498Z,101740.13
2023-02-02T22:57:56.233Z,101735.78
2023-02-02T23:00:30.259Z,101733.91
2023-02-02T23:02:58.236Z,101744.59
2023-02-02T23:05:27.892Z,101751.75
2023-02-02T23:07:56.521Z,101770.38
2023-02-02T23:10:27.795Z,101768.66
2023-02-02T23:12:58.371Z,101773.13
2023-02-02T23:15:27.069Z,101770.50
2023-02-02T23:17:54.928Z,101775.00
2023-02-02T23:20:23.528Z,101774.06
2023-02-02T23:22:51.773Z,101769.69
2023-02-02T23:25:19.642Z,101783.81
2023-02-02T23:27:47.906Z,101790.94
2023-02-02T23:30:16.403Z,101792.63
2023-02-02T23:32:44.815Z,101796.22
2023-02-02T23:35:12.586Z,101792.75
2023-02-02T23:37:40.435Z,101798.06
2023-02-02T23:40:09.375Z,101807.78
2023-02-02T23:42:37.574Z,101794.56
2023-02-02T23:45:05.998Z,101798.06
2023-02-02T23:47:35.383Z,101798.03
2023-02-02T23:50:05.916Z,101805.97
2023-02-02T23:52:34.927Z,101793.66
2023-02-02T23:55:04.253Z,101802.44
2023-02-02T23:57:33.822Z,101804.22
